sensor_id;sensor_type;location;lat;lon;timestamp;temperature;humidity
16198;DHT22;8206;51.440;6.914;2023-03-13T00:45:29;9.40;1.00
16198;DHT22;8206;51.440;6.914;2023-03-13T00:47:56;9.50;1.00
16198;DHT22;8206;51.440;6.914;2023-03-13T00:50:23;9.50;1.00
16198;DHT22;8206;51.440;6.914;2023-03-13T00:52:49;9.40;1.00
16198;DHT22;8206;51.440;6.914;2023-03-13T00:55:16;9.40;99.90
16198;DHT22;8206;51.440;6.914;2023-03-13T00:57:42;9.40;1.00
16198;DHT22;8206;51.440;6.914;2023-03-13T01:00:10;9.40;61.90
16198;DHT22;8206;51.440;6.914;2023-03-13T01:02:41;9.40;1.00
16198;DHT22;8206;51.440;6.914;2023-03-13T01:05:09;9.30;1.00
16198;DHT22;8206;51.440;6.914;2023-03-13T01:07:37;9.20;99.90
16198;DHT22;8206;51.440;6.914;2023-03-13T01:10:05;9.20;99.90
16198;DHT22;8206;51.440;6.914;2023-03-13T01:12:32;9.10;99.90
16198;DHT22;8206;51.440;6.914;2023-03-13T01:14:58;9.20;1.00
16198;DHT22;8206;51.440;6.914;2023-03-13T01:17:25;9.20;99.90
16198;DHT22;8206;51.440;6.914;2023-03-13T01:19:55;9.20;99.90
16198;DHT22;8206;51.440;6.914;2023-03-13T01:22:22;9.20;1.00
16198;DHT22;8206;51.440;6.914;2023-03-13T01:24:49;9.20;1.00
16198;DHT22;8206;51.440;6.914;2023-03-13T01:27:17;9.20;99.90
16198;DHT22;8206;51.440;6.914;2023-03-13T01:29:43;9.20;1.00
16198;DHT22;8206;51.440;6.914;2023-03-13T01:32:10;9.20;1.00
16198;DHT22;8206;51.440;6.914;2023-03-13T01:34:37;9.20;1.00
16198;DHT22;8206;51.440;6.914;2023-03-13T01:37:06;9.30;99.90
16198;DHT22;8206;51.440;6.914;2023-03-13T01:39:33;9.20;99.90
16198;DHT22;8206;51.440;6.914;2023-03-13T01:41:59;9.20;99.90
16198;DHT22;8206;51.440;6.914;2023-03-13T01:44:26;9.20;99.90
16198;DHT22;8206;51.440;6.914;2023-03-13T01:46:53;9.20;99.90
16198;DHT22;8206;51.440;6.914;2023-03-13T01:49:21;9.20;99.90
16198;DHT22;8206;51.440;6.914;2023-03-13T01:51:50;9.20;99.90
16198;DHT22;8206;51.440;6.914;2023-03-13T01:54:22;9.20;99.90
16198;DHT22;8206;51.440;6.914;2023-03-13T01:56:52;9.10;99.90
16198;DHT22;8206;51.440;6.914;2023-03-13T01:59:23;9.10;99.90
16198;DHT22;8206;51.440;6.914;2023-03-13T02:01:53;9.10;99.90
16198;DHT22;8206;51.440;6.914;2023-03-13T02:04:22;9.10;99.90
16198;DHT22;8206;51.440;6.914;2023-03-13T02:06:53;9.10;99.90
16198;DHT22;8206;51.440;6.914;2023-03-13T02:09:25;9.00;99.90
16198;DHT22;8206;51.440;6.914;2023-03-13T02:11:57;9.10;99.90
16198;DHT22;8206;51.440;6.914;2023-03-13T02:14:27;9.10;99.90
16198;DHT22;8206;51.440;6.914;2023-03-13T02:16:56;9.10;99.90
16198;DHT22;8206;51.440;6.914;2023-03-13T02:19:28;9.10;99.90
16198;DHT22;8206;51.440;6.914;2023-03-13T02:22:01;9.10;99.90
16198;DHT22;8206;51.440;6.914;2023-03-13T02:24:36;9.10;99.90
16198;DHT22;8206;51.440;6.914;2023-03-13T02:27:06;9.20;99.90
16198;DHT22;8206;51.440;6.914;2023-03-13T02:29:33;9.10;99.90
16198;DHT22;8206;51.440;6.914;2023-03-13T02:32:00;9.20;99.90
16198;DHT22;8206;51.440;6.914;2023-03-13T02:34:29;9.20;99.90
16198;DHT22;8206;51.440;6.914;2023-03-13T02:36:57;9.20;99.90
16198;DHT22;8206;51.440;6.914;2023-03-13T02:39:25;9.20;99.90
16198;DHT22;8206;51.440;6.914;2023-03-13T02:41:53;9.20;99.90
16198;DHT22;8206;51.440;6.914;2023-03-13T02:44:21;9.30;99.90
16198;DHT22;8206;51.440;6.914;2023-03-13T02:46:49;9.30;99.90
16198;DHT22;8206;51.440;6.914;2023-03-13T02:49:23;9.30;99.90
16198;DHT22;8206;51.440;6.914;2023-03-13T02:51:50;9.30;99.90
16198;DHT22;8206;51.440;6.914;2023-03-13T02:54:20;9.30;99.90
16198;DHT22;8206;51.440;6.914;2023-03-13T02:56:52;9.30;99.90
16198;DHT22;8206;51.440;6.914;2023-03-13T02:59:21;9.40;99.90
16198;DHT22;8206;51.440;6.914;2023-03-13T03:01:48;9.40;99.90
16198;DHT22;8206;51.440;6.914;2023-03-13T03:04:17;9.40;99.90
16198;DHT22;8206;51.440;6.914;2023-03-13T03:06:44;9.50;99.90
16198;DHT22;8206;51.440;6.914;2023-03-13T03:09:10;9.50;99.90
16198;DHT22;8206;51.440;6.914;2023-03-13T03:11:37;9.50;99.90
16198;DHT22;8206;51.440;6.914;2023-03-13T03:14:04;9.60;99.90
16198;DHT22;8206;51.440;6.914;2023-03-13T03:16:32;9.60;99.90
16198;DHT22;8206;51.440;6.914;2023-03-13T03:18:59;9.60;99.90
16198;DHT22;8206;51.440;6.914;2023-03-13T03:21:26;9.70;99.90
16198;DHT22;8206;51.440;6.914;2023-03-13T03:23:52;9.70;99.90
16198;DHT22;8206;51.440;6.914;2023-03-13T03:26:19;9.70;99.90
16198;DHT22;8206;51.440;6.914;2023-03-13T03:28:46;9.80;99.90
16198;DHT22;8206;51.440;6.914;2023-03-13T03:31:14;9.80;99.90
16198;DHT22;8206;51.440;6.914;2023-03-13T03:33:42;9.80;99.90
16198;DHT22;8206;51.440;6.914;2023-03-13T03:36:12;9.80;99.90
16198;DHT22;8206;51.440;6.914;2023-03-13T03:38:39;9.80;99.90
16198;DHT22;8206;51.440;6.914;2023-03-13T03:41:06;9.90;99.90
16198;DHT22;8206;51.440;6.914;2023-03-13T03:43:33;9.90;99.90
16198;DHT22;8206;51.440;6.914;2023-03-13T03:46:00;9.90;99.90
16198;DHT22;8206;51.440;6.914;2023-03-13T03:48:27;9.90;99.90
16198;DHT22;8206;51.440;6.914;2023-03-13T03:50:55;10.00;99.90
16198;DHT22;8206;51.440;6.914;2023-03-13T03:53:22;10.00;99.90
16198;DHT22;8206;51.440;6.914;2023-03-13T03:55:48;10.10;99.90
16198;DHT22;8206;51.440;6.914;2023-03-13T03:58:15;10.10;99.90
16198;DHT22;8206;51.440;6.914;2023-03-13T04:00:42;10.00;99.90
16198;DHT22;8206;51.440;6.914;2023-03-13T04:03:10;10.00;99.90
16198;DHT22;8206;51.440;6.914;2023-03-13T04:05:37;10.10;99.90
16198;DHT22;8206;51.440;6.914;2023-03-13T04:08:05;10.20;99.90
16198;DHT22;8206;51.440;6.914;2023-03-13T04:10:32;10.10;99.90
16198;DHT22;8206;51.440;6.914;2023-03-13T04:12:59;10.20;99.90
16198;DHT22;8206;51.440;6.914;2023-03-13T04:15:25;10.10;99.90
16198;DHT22;8206;51.440;6.914;2023-03-13T04:17:52;10.10;99.90
16198;DHT22;8206;51.440;6.914;2023-03-13T04:20:19;10.20;99.90
16198;DHT22;8206;51.440;6.914;2023-03-13T04:22:45;10.20;99.90
16198;DHT22;8206;51.440;6.914;2023-03-13T04:25:13;10.20;99.90
16198;DHT22;8206;51.440;6.914;2023-03-13T04:27:40;10.30;99.90
16198;DHT22;8206;51.440;6.914;2023-03-13T04:30:08;10.20;99.90
16198;DHT22;8206;51.440;6.914;2023-03-13T04:32:35;10.30;99.90
16198;DHT22;8206;51.440;6.914;2023-03-13T04:35:01;10.30;99.90
16198;DHT22;8206;51.440;6.914;2023-03-13T04:37:28;10.30;99.90
16198;DHT22;8206;51.440;6.914;2023-03-13T04:39:55;10.40;99.90
16198;DHT22;8206;51.440;6.914;2023-03-13T04:42:23;10.40;99.90
16198;DHT22;8206;51.440;6.914;2023-03-13T04:44:50;10.40;99.90
16198;DHT22;8206;51.440;6.914;2023-03-13T04:47:16;10.40;99.90
16198;DHT22;8206;51.440;6.914;2023-03-13T04:49:43;10.50;99.90
16198;DHT22;8206;51.440;6.914;2023-03-13T04:52:10;10.50;99.90
16198;DHT22;8206;51.440;6.914;2023-03-13T04:54:37;10.50;99.90
16198;DHT22;8206;51.440;6.914;2023-03-13T04:57:04;10.60;99.90
16198;DHT22;8206;51.440;6.914;2023-03-13T04:59:32;10.70;99.90
16198;DHT22;8206;51.440;6.914;2023-03-13T05:01:58;10.70;99.90
16198;DHT22;8206;51.440;6.914;2023-03-13T05:04:25;10.70;99.90
16198;DHT22;8206;51.440;6.914;2023-03-13T05:06:52;10.80;99.90
16198;DHT22;8206;51.440;6.914;2023-03-13T05:09:18;10.90;99.90
16198;DHT22;8206;51.440;6.914;2023-03-13T05:11:45;10.90;99.90
16198;DHT22;8206;51.440;6.914;2023-03-13T05:14:12;10.90;99.90
16198;DHT22;8206;51.440;6.914;2023-03-13T05:16:40;11.00;99.90
16198;DHT22;8206;51.440;6.914;2023-03-13T05:19:06;11.00;99.90
16198;DHT22;8206;51.440;6.914;2023-03-13T05:21:33;11.10;99.90
16198;DHT22;8206;51.440;6.914;2023-03-13T05:23:59;11.10;99.90
16198;DHT22;8206;51.440;6.914;2023-03-13T05:26:26;11.20;99.90
16198;DHT22;8206;51.440;6.914;2023-03-13T05:28:53;11.20;99.90
16198;DHT22;8206;51.440;6.914;2023-03-13T05:31:19;11.20;99.90
16198;DHT22;8206;51.440;6.914;2023-03-13T05:33:47;11.20;99.90
16198;DHT22;8206;51.440;6.914;2023-03-13T05:36:14;11.20;99.90
16198;DHT22;8206;51.440;6.914;2023-03-13T05:38:41;11.30;99.90
16198;DHT22;8206;51.440;6.914;2023-03-13T05:41:07;11.30;99.90
16198;DHT22;8206;51.440;6.914;2023-03-13T05:43:34;11.40;99.90
16198;DHT22;8206;51.440;6.914;2023-03-13T05:46:01;11.40;99.90
16198;DHT22;8206;51.440;6.914;2023-03-13T05:48:27;11.40;99.90
16198;DHT22;8206;51.440;6.914;2023-03-13T05:50:55;11.40;99.90
16198;DHT22;8206;51.440;6.914;2023-03-13T05:53:22;11.40;99.90
16198;DHT22;8206;51.440;6.914;2023-03-13T05:55:49;11.40;99.90
16198;DHT22;8206;51.440;6.914;2023-03-13T05:58:15;11.50;99.90
16198;DHT22;8206;51.440;6.914;2023-03-13T06:00:42;11.50;99.90
16198;DHT22;8206;51.440;6.914;2023-03-13T06:03:09;11.50;99.90
16198;DHT22;8206;51.440;6.914;2023-03-13T06:05:36;11.50;99.90
16198;DHT22;8206;51.440;6.914;2023-03-13T06:08:04;11.50;99.90
16198;DHT22;8206;51.440;6.914;2023-03-13T06:10:31;11.60;99.90
16198;DHT22;8206;51.440;6.914;2023-03-13T06:12:58;11.60;99.90
16198;DHT22;8206;51.440;6.914;2023-03-13T06:15:25;11.60;99.90
16198;DHT22;8206;51.440;6.914;2023-03-13T06:17:51;11.60;99.90
16198;DHT22;8206;51.440;6.914;2023-03-13T06:20:18;11.70;99.90
16198;DHT22;8206;51.440;6.914;2023-03-13T06:22:45;11.70;99.90
16198;DHT22;8206;51.440;6.914;2023-03-13T06:28:35;11.80;99.90
16198;DHT22;8206;51.440;6.914;2023-03-13T06:31:02;11.80;99.90
16198;DHT22;8206;51.440;6.914;2023-03-13T06:33:29;11.80;99.90
16198;DHT22;8206;51.440;6.914;2023-03-13T06:35:56;11.90;99.90
16198;DHT22;8206;51.440;6.914;2023-03-13T06:38:23;11.90;99.90
16198;DHT22;8206;51.440;6.914;2023-03-13T06:40:50;11.90;99.90
16198;DHT22;8206;51.440;6.914;2023-03-13T06:43:17;12.00;99.90
16198;DHT22;8206;51.440;6.914;2023-03-13T06:45:45;12.10;99.90
16198;DHT22;8206;51.440;6.914;2023-03-13T06:48:12;12.00;99.90
16198;DHT22;8206;51.440;6.914;2023-03-13T06:50:40;12.10;99.90
16198;DHT22;8206;51.440;6.914;2023-03-13T06:53:08;12.10;99.90
16198;DHT22;8206;51.440;6.914;2023-03-13T06:55:39;12.00;99.90
16198;DHT22;8206;51.440;6.914;2023-03-13T06:58:05;12.10;99.90
16198;DHT22;8206;51.440;6.914;2023-03-13T07:00:32;12.10;99.90
16198;DHT22;8206;51.440;6.914;2023-03-13T07:03:00;12.20;99.90
16198;DHT22;8206;51.440;6.914;2023-03-13T07:05:27;12.20;99.90
16198;DHT22;8206;51.440;6.914;2023-03-13T07:07:53;12.20;99.90
16198;DHT22;8206;51.440;6.914;2023-03-13T07:10:20;12.30;99.90
16198;DHT22;8206;51.440;6.914;2023-03-13T07:12:47;12.30;99.90
16198;DHT22;8206;51.440;6.914;2023-03-13T07:15:14;12.30;99.90
16198;DHT22;8206;51.440;6.914;2023-03-13T07:17:40;12.40;99.90
16198;DHT22;8206;51.440;6.914;2023-03-13T07:20:10;12.40;99.90
16198;DHT22;8206;51.440;6.914;2023-03-13T07:22:37;12.40;99.90
16198;DHT22;8206;51.440;6.914;2023-03-13T07:25:04;12.40;99.90
16198;DHT22;8206;51.440;6.914;2023-03-13T07:27:31;12.50;99.90
16198;DHT22;8206;51.440;6.914;2023-03-13T07:29:58;12.50;99.90
16198;DHT22;8206;51.440;6.914;2023-03-13T07:32:25;12.60;99.90
16198;DHT22;8206;51.440;6.914;2023-03-13T07:34:51;12.70;99.90
16198;DHT22;8206;51.440;6.914;2023-03-13T07:37:19;12.70;99.90
16198;DHT22;8206;51.440;6.914;2023-03-13T07:39:46;12.80;99.90
16198;DHT22;8206;51.440;6.914;2023-03-13T07:42:13;12.80;99.90
16198;DHT22;8206;51.440;6.914;2023-03-13T07:44:39;12.80;99.90
16198;DHT22;8206;51.440;6.914;2023-03-13T07:47:06;12.80;99.90
16198;DHT22;8206;51.440;6.914;2023-03-13T07:49:33;12.80;99.90
16198;DHT22;8206;51.440;6.914;2023-03-13T07:52:04;12.90;99.90
16198;DHT22;8206;51.440;6.914;2023-03-13T07:54:32;12.90;99.90
16198;DHT22;8206;51.440;6.914;2023-03-13T07:56:59;12.90;99.90
16198;DHT22;8206;51.440;6.914;2023-03-13T07:59:26;12.90;99.90
16198;DHT22;8206;51.440;6.914;2023-03-13T08:01:53;12.90;99.90
16198;DHT22;8206;51.440;6.914;2023-03-13T08:04:20;12.80;99.90
16198;DHT22;8206;51.440;6.914;2023-03-13T08:06:46;12.80;99.90
16198;DHT22;8206;51.440;6.914;2023-03-13T08:09:13;12.80;99.90
16198;DHT22;8206;51.440;6.914;2023-03-13T08:11:41;12.90;99.90
16198;DHT22;8206;51.440;6.914;2023-03-13T08:14:08;12.90;99.90
16198;DHT22;8206;51.440;6.914;2023-03-13T08:16:35;12.90;99.90
16198;DHT22;8206;51.440;6.914;2023-03-13T08:19:03;12.90;99.90
16198;DHT22;8206;51.440;6.914;2023-03-13T08:21:32;12.90;99.90
16198;DHT22;8206;51.440;6.914;2023-03-13T08:24:00;13.00;99.90
16198;DHT22;8206;51.440;6.914;2023-03-13T08:26:30;13.00;99.90
16198;DHT22;8206;51.440;6.914;2023-03-13T08:29:01;13.10;99.90
16198;DHT22;8206;51.440;6.914;2023-03-13T08:31:31;13.10;99.90
16198;DHT22;8206;51.440;6.914;2023-03-13T08:33:58;13.20;99.90
16198;DHT22;8206;51.440;6.914;2023-03-13T08:36:26;13.20;99.90
16198;DHT22;8206;51.440;6.914;2023-03-13T08:38:56;13.20;99.90
16198;DHT22;8206;51.440;6.914;2023-03-13T08:41:25;13.30;99.90
16198;DHT22;8206;51.440;6.914;2023-03-13T08:43:53;13.20;99.90
16198;DHT22;8206;51.440;6.914;2023-03-13T08:46:21;13.30;99.90
16198;DHT22;8206;51.440;6.914;2023-03-13T08:48:49;13.40;99.90
16198;DHT22;8206;51.440;6.914;2023-03-13T08:51:16;13.50;99.90
16198;DHT22;8206;51.440;6.914;2023-03-13T08:53:43;13.50;99.90
16198;DHT22;8206;51.440;6.914;2023-03-13T08:56:12;13.50;99.90
16198;DHT22;8206;51.440;6.914;2023-03-13T08:58:39;13.40;99.90
16198;DHT22;8206;51.440;6.914;2023-03-13T09:01:07;13.50;99.90
16198;DHT22;8206;51.440;6.914;2023-03-13T09:03:36;13.60;99.90
16198;DHT22;8206;51.440;6.914;2023-03-13T09:06:03;13.80;99.90
16198;DHT22;8206;51.440;6.914;2023-03-13T09:08:31;13.80;99.90
16198;DHT22;8206;51.440;6.914;2023-03-13T09:10:59;13.80;99.90
16198;DHT22;8206;51.440;6.914;2023-03-13T09:13:28;14.00;99.90
16198;DHT22;8206;51.440;6.914;2023-03-13T09:15:55;14.20;99.90
16198;DHT22;8206;51.440;6.914;2023-03-13T09:18:22;14.30;99.90
16198;DHT22;8206;51.440;6.914;2023-03-13T09:20:50;14.40;99.90
16198;DHT22;8206;51.440;6.914;2023-03-13T09:23:18;14.50;99.90
16198;DHT22;8206;51.440;6.914;2023-03-13T09:25:44;14.60;99.90
16198;DHT22;8206;51.440;6.914;2023-03-13T09:28:11;14.70;99.90
16198;DHT22;8206;51.440;6.914;2023-03-13T09:30:38;14.80;99.90
16198;DHT22;8206;51.440;6.914;2023-03-13T09:33:05;14.90;99.90
16198;DHT22;8206;51.440;6.914;2023-03-13T09:35:31;14.90;99.90
16198;DHT22;8206;51.440;6.914;2023-03-13T09:37:59;14.70;99.90
16198;DHT22;8206;51.440;6.914;2023-03-13T09:40:27;14.50;99.90
16198;DHT22;8206;51.440;6.914;2023-03-13T09:42:56;14.70;99.90
16198;DHT22;8206;51.440;6.914;2023-03-13T09:45:29;14.80;99.90
16198;DHT22;8206;51.440;6.914;2023-03-13T09:48:01;14.90;99.90
16198;DHT22;8206;51.440;6.914;2023-03-13T09:50:33;14.80;99.90
16198;DHT22;8206;51.440;6.914;2023-03-13T09:53:04;15.10;99.90
16198;DHT22;8206;51.440;6.914;2023-03-13T09:55:33;15.40;99.90
16198;DHT22;8206;51.440;6.914;2023-03-13T09:58:05;15.50;99.90
16198;DHT22;8206;51.440;6.914;2023-03-13T10:00:37;15.60;99.90
16198;DHT22;8206;51.440;6.914;2023-03-13T10:03:11;15.30;99.90
16198;DHT22;8206;51.440;6.914;2023-03-13T10:05:45;15.10;99.90
16198;DHT22;8206;51.440;6.914;2023-03-13T10:08:17;15.20;99.90
16198;DHT22;8206;51.440;6.914;2023-03-13T10:10:47;15.10;99.90
16198;DHT22;8206;51.440;6.914;2023-03-13T10:13:19;15.20;99.90
16198;DHT22;8206;51.440;6.914;2023-03-13T10:15:50;15.40;99.90
16198;DHT22;8206;51.440;6.914;2023-03-13T10:18:22;15.70;99.90
16198;DHT22;8206;51.440;6.914;2023-03-13T10:20:50;15.90;99.90
16198;DHT22;8206;51.440;6.914;2023-03-13T10:23:23;15.90;99.90
16198;DHT22;8206;51.440;6.914;2023-03-13T10:25:52;15.90;99.90
16198;DHT22;8206;51.440;6.914;2023-03-13T10:28:18;15.90;99.90
16198;DHT22;8206;51.440;6.914;2023-03-13T10:30:47;15.90;99.90
16198;DHT22;8206;51.440;6.914;2023-03-13T10:33:22;15.70;99.90
16198;DHT22;8206;51.440;6.914;2023-03-13T10:36:00;15.50;99.90
16198;DHT22;8206;51.440;6.914;2023-03-13T10:38:32;15.40;99.90
16198;DHT22;8206;51.440;6.914;2023-03-13T10:41:00;15.30;99.90
16198;DHT22;8206;51.440;6.914;2023-03-13T10:43:28;15.40;99.90
16198;DHT22;8206;51.440;6.914;2023-03-13T10:45:55;15.50;99.90
16198;DHT22;8206;51.440;6.914;2023-03-13T10:48:23;15.80;99.90
16198;DHT22;8206;51.440;6.914;2023-03-13T10:50:52;15.90;99.90
16198;DHT22;8206;51.440;6.914;2023-03-13T10:53:32;15.90;99.90
16198;DHT22;8206;51.440;6.914;2023-03-13T10:56:07;15.90;99.90
16198;DHT22;8206;51.440;6.914;2023-03-13T10:58:41;16.00;99.90
16198;DHT22;8206;51.440;6.914;2023-03-13T11:01:16;16.30;99.90
16198;DHT22;8206;51.440;6.914;2023-03-13T11:03:44;16.40;99.90
16198;DHT22;8206;51.440;6.914;2023-03-13T11:06:26;16.30;99.90
16198;DHT22;8206;51.440;6.914;2023-03-13T11:09:04;16.10;99.90
16198;DHT22;8206;51.440;6.914;2023-03-13T11:11:43;16.10;99.90
16198;DHT22;8206;51.440;6.914;2023-03-13T11:14:14;16.20;99.90
16198;DHT22;8206;51.440;6.914;2023-03-13T11:16:46;16.20;99.90
16198;DHT22;8206;51.440;6.914;2023-03-13T11:19:29;16.30;99.90
16198;DHT22;8206;51.440;6.914;2023-03-13T11:25:13;16.30;99.90
16198;DHT22;8206;51.440;6.914;2023-03-13T11:27:45;16.40;99.90
16198;DHT22;8206;51.440;6.914;2023-03-13T11:30:40;16.50;99.90
16198;DHT22;8206;51.440;6.914;2023-03-13T11:33:14;16.50;99.90
16198;DHT22;8206;51.440;6.914;2023-03-13T11:35:46;16.50;99.90
16198;DHT22;8206;51.440;6.914;2023-03-13T11:38:17;16.60;99.90
16198;DHT22;8206;51.440;6.914;2023-03-13T11:40:53;16.70;99.90
16198;DHT22;8206;51.440;6.914;2023-03-13T11:43:35;16.90;99.90
16198;DHT22;8206;51.440;6.914;2023-03-13T11:49:12;17.10;99.90
16198;DHT22;8206;51.440;6.914;2023-03-13T11:51:53;17.00;99.90
16198;DHT22;8206;51.440;6.914;2023-03-13T11:54:56;16.90;99.90
16198;DHT22;8206;51.440;6.914;2023-03-13T11:57:28;16.90;99.90
16198;DHT22;8206;51.440;6.914;2023-03-13T12:00:13;16.90;99.90
16198;DHT22;8206;51.440;6.914;2023-03-13T12:02:46;16.90;99.90
16198;DHT22;8206;51.440;6.914;2023-03-13T12:05:18;17.00;99.90
16198;DHT22;8206;51.440;6.914;2023-03-13T12:07:49;16.90;99.90
16198;DHT22;8206;51.440;6.914;2023-03-13T12:10:19;16.90;99.90
16198;DHT22;8206;51.440;6.914;2023-03-13T12:12:51;16.80;99.90
16198;DHT22;8206;51.440;6.914;2023-03-13T12:15:23;16.80;99.90
16198;DHT22;8206;51.440;6.914;2023-03-13T12:17:56;16.80;99.90
16198;DHT22;8206;51.440;6.914;2023-03-13T12:20:27;16.90;99.90
16198;DHT22;8206;51.440;6.914;2023-03-13T12:23:03;16.80;99.90
16198;DHT22;8206;51.440;6.914;2023-03-13T12:25:36;16.90;99.90
16198;DHT22;8206;51.440;6.914;2023-03-13T12:28:16;16.80;99.90
16198;DHT22;8206;51.440;6.914;2023-03-13T12:30:51;16.60;99.90
16198;DHT22;8206;51.440;6.914;2023-03-13T12:33:24;16.60;99.90
16198;DHT22;8206;51.440;6.914;2023-03-13T12:35:55;16.50;99.90
16198;DHT22;8206;51.440;6.914;2023-03-13T12:38:30;16.50;99.90
16198;DHT22;8206;51.440;6.914;2023-03-13T12:41:07;16.50;99.90
16198;DHT22;8206;51.440;6.914;2023-03-13T12:43:39;16.50;99.90
16198;DHT22;8206;51.440;6.914;2023-03-13T12:46:18;16.40;99.90
16198;DHT22;8206;51.440;6.914;2023-03-13T12:51:51;16.30;99.90
16198;DHT22;8206;51.440;6.914;2023-03-13T12:54:42;16.30;99.90
16198;DHT22;8206;51.440;6.914;2023-03-13T12:57:36;16.40;99.90
16198;DHT22;8206;51.440;6.914;2023-03-13T13:00:14;16.60;99.90
16198;DHT22;8206;51.440;6.914;2023-03-13T13:02:42;17.00;99.90
16198;DHT22;8206;51.440;6.914;2023-03-13T13:05:17;17.00;99.90
16198;DHT22;8206;51.440;6.914;2023-03-13T13:07:52;17.00;99.90
16198;DHT22;8206;51.440;6.914;2023-03-13T13:10:21;17.00;99.90
16198;DHT22;8206;51.440;6.914;2023-03-13T13:13:17;17.10;99.90
16198;DHT22;8206;51.440;6.914;2023-03-13T13:15:46;17.20;99.90
16198;DHT22;8206;51.440;6.914;2023-03-13T13:18:21;17.40;99.90
16198;DHT22;8206;51.440;6.914;2023-03-13T13:21:19;17.50;99.90
16198;DHT22;8206;51.440;6.914;2023-03-13T13:23:48;17.50;99.90
16198;DHT22;8206;51.440;6.914;2023-03-13T13:26:46;17.50;99.90
16198;DHT22;8206;51.440;6.914;2023-03-13T13:32:41;17.40;99.90
16198;DHT22;8206;51.440;6.914;2023-03-13T13:35:29;17.30;99.90
16198;DHT22;8206;51.440;6.914;2023-03-13T13:38:30;17.20;99.90
16198;DHT22;8206;51.440;6.914;2023-03-13T13:41:04;17.20;99.90
16198;DHT22;8206;51.440;6.914;2023-03-13T13:43:32;17.20;99.90
16198;DHT22;8206;51.440;6.914;2023-03-13T13:46:04;17.40;99.90
16198;DHT22;8206;51.440;6.914;2023-03-13T13:48:35;17.20;99.90
16198;DHT22;8206;51.440;6.914;2023-03-13T13:51:23;17.00;99.90
16198;DHT22;8206;51.440;6.914;2023-03-13T13:53:53;16.90;99.90
16198;DHT22;8206;51.440;6.914;2023-03-13T13:56:35;16.80;99.90
16198;DHT22;8206;51.440;6.914;2023-03-13T13:59:12;16.60;99.90
16198;DHT22;8206;51.440;6.914;2023-03-13T14:01:42;16.70;99.90
16198;DHT22;8206;51.440;6.914;2023-03-13T14:04:14;16.70;99.90
16198;DHT22;8206;51.440;6.914;2023-03-13T14:06:44;16.60;99.90
16198;DHT22;8206;51.440;6.914;2023-03-13T14:09:19;16.60;99.90
16198;DHT22;8206;51.440;6.914;2023-03-13T14:11:49;16.60;99.90
16198;DHT22;8206;51.440;6.914;2023-03-13T14:14:17;16.70;99.90
16198;DHT22;8206;51.440;6.914;2023-03-13T14:16:45;16.70;99.90
16198;DHT22;8206;51.440;6.914;2023-03-13T14:19:23;16.60;99.90
16198;DHT22;8206;51.440;6.914;2023-03-13T14:21:56;16.40;99.90
16198;DHT22;8206;51.440;6.914;2023-03-13T14:24:23;16.30;99.90
16198;DHT22;8206;51.440;6.914;2023-03-13T14:26:50;16.30;99.90
16198;DHT22;8206;51.440;6.914;2023-03-13T14:29:18;16.30;99.90
16198;DHT22;8206;51.440;6.914;2023-03-13T14:31:51;16.40;99.90
16198;DHT22;8206;51.440;6.914;2023-03-13T14:34:18;16.40;99.90
16198;DHT22;8206;51.440;6.914;2023-03-13T14:36:47;16.40;99.90
16198;DHT22;8206;51.440;6.914;2023-03-13T14:39:18;16.30;99.90
16198;DHT22;8206;51.440;6.914;2023-03-13T14:41:46;16.30;99.90
16198;DHT22;8206;51.440;6.914;2023-03-13T14:44:19;16.30;99.90
16198;DHT22;8206;51.440;6.914;2023-03-13T14:46:47;16.40;99.90
16198;DHT22;8206;51.440;6.914;2023-03-13T14:49:17;16.40;99.90
16198;DHT22;8206;51.440;6.914;2023-03-13T14:51:58;16.40;99.90
16198;DHT22;8206;51.440;6.914;2023-03-13T14:54:28;16.20;99.90
16198;DHT22;8206;51.440;6.914;2023-03-13T14:57:03;16.20;99.90
16198;DHT22;8206;51.440;6.914;2023-03-13T14:59:30;16.10;99.90
16198;DHT22;8206;51.440;6.914;2023-03-13T15:01:59;16.10;99.90
16198;DHT22;8206;51.440;6.914;2023-03-13T15:04:47;15.80;99.90
16198;DHT22;8206;51.440;6.914;2023-03-13T15:07:15;15.90;99.90
16198;DHT22;8206;51.440;6.914;2023-03-13T15:09:43;15.80;99.90
16198;DHT22;8206;51.440;6.914;2023-03-13T15:12:13;15.90;99.90
16198;DHT22;8206;51.440;6.914;2023-03-13T15:14:42;15.90;99.90
16198;DHT22;8206;51.440;6.914;2023-03-13T15:17:13;16.00;99.90
16198;DHT22;8206;51.440;6.914;2023-03-13T15:19:41;16.00;99.90
16198;DHT22;8206;51.440;6.914;2023-03-13T15:22:11;16.00;99.90
16198;DHT22;8206;51.440;6.914;2023-03-13T15:24:40;15.90;99.90
16198;DHT22;8206;51.440;6.914;2023-03-13T15:27:17;15.80;99.90
16198;DHT22;8206;51.440;6.914;2023-03-13T15:29:44;15.80;99.90
16198;DHT22;8206;51.440;6.914;2023-03-13T15:32:23;15.80;99.90
16198;DHT22;8206;51.440;6.914;2023-03-13T15:34:50;16.00;99.90
16198;DHT22;8206;51.440;6.914;2023-03-13T15:37:17;16.20;99.90
16198;DHT22;8206;51.440;6.914;2023-03-13T15:39:46;16.40;99.90
16198;DHT22;8206;51.440;6.914;2023-03-13T15:42:13;16.40;99.90
16198;DHT22;8206;51.440;6.914;2023-03-13T15:44:39;16.30;99.90
16198;DHT22;8206;51.440;6.914;2023-03-13T15:47:09;16.10;99.90
16198;DHT22;8206;51.440;6.914;2023-03-13T15:49:35;15.90;99.90
16198;DHT22;8206;51.440;6.914;2023-03-13T15:52:03;15.80;99.90
16198;DHT22;8206;51.440;6.914;2023-03-13T15:54:31;15.70;99.90
16198;DHT22;8206;51.440;6.914;2023-03-13T15:56:59;15.70;99.90
16198;DHT22;8206;51.440;6.914;2023-03-13T15:59:27;15.70;99.90
16198;DHT22;8206;51.440;6.914;2023-03-13T16:01:54;15.60;99.90
16198;DHT22;8206;51.440;6.914;2023-03-13T16:04:21;15.60;99.90
16198;DHT22;8206;51.440;6.914;2023-03-13T16:06:48;15.50;99.90
16198;DHT22;8206;51.440;6.914;2023-03-13T16:09:14;15.40;99.90
16198;DHT22;8206;51.440;6.914;2023-03-13T16:11:41;15.30;99.90
16198;DHT22;8206;51.440;6.914;2023-03-13T16:14:10;15.20;99.90
16198;DHT22;8206;51.440;6.914;2023-03-13T16:16:38;15.20;99.90
16198;DHT22;8206;51.440;6.914;2023-03-13T16:19:05;15.10;99.90
16198;DHT22;8206;51.440;6.914;2023-03-13T16:21:33;15.10;99.90
16198;DHT22;8206;51.440;6.914;2023-03-13T16:24:00;15.00;99.90
16198;DHT22;8206;51.440;6.914;2023-03-13T16:26:29;14.90;99.90
16198;DHT22;8206;51.440;6.914;2023-03-13T16:28:56;14.90;99.90
16198;DHT22;8206;51.440;6.914;2023-03-13T16:31:26;14.90;99.90
16198;DHT22;8206;51.440;6.914;2023-03-13T16:33:53;14.80;99.90
16198;DHT22;8206;51.440;6.914;2023-03-13T16:36:22;14.70;99.90
16198;DHT22;8206;51.440;6.914;2023-03-13T16:38:50;14.70;99.90
16198;DHT22;8206;51.440;6.914;2023-03-13T16:41:18;14.60;99.90
16198;DHT22;8206;51.440;6.914;2023-03-13T16:43:45;14.50;99.90
16198;DHT22;8206;51.440;6.914;2023-03-13T16:46:14;14.50;99.90
16198;DHT22;8206;51.440;6.914;2023-03-13T16:48:43;14.40;99.90
16198;DHT22;8206;51.440;6.914;2023-03-13T16:51:14;14.30;99.90
16198;DHT22;8206;51.440;6.914;2023-03-13T16:53:42;14.30;99.90
16198;DHT22;8206;51.440;6.914;2023-03-13T16:56:15;14.30;99.90
16198;DHT22;8206;51.440;6.914;2023-03-13T16:58:44;14.20;99.90
16198;DHT22;8206;51.440;6.914;2023-03-13T17:01:11;14.20;99.90
16198;DHT22;8206;51.440;6.914;2023-03-13T17:03:38;14.20;99.90
16198;DHT22;8206;51.440;6.914;2023-03-13T17:06:12;14.10;99.90